createdAt,value
2022-12-18T00:02:55.071Z,1.10
2022-12-18T00:07:07.047Z,1.20
2022-12-18T00:11:19.488Z,1.10
2022-12-18T00:15:29.028Z,1.10
2022-12-18T00:19:38.953Z,1.00
2022-12-18T00:23:53.289Z,1.10
2022-12-18T00:28:06.467Z,1.10
2022-12-18T00:32:16.710Z,1.20
2022-12-18T00:36:29.049Z,1.10
2022-12-18T00:40:41.833Z,1.10
2022-12-18T00:44:52.370Z,1.10
2022-12-18T00:49:02.171Z,1.10
2022-12-18T00:53:14.751Z,1.20
2022-12-18T00:57:25.987Z,1.10
2022-12-18T01:01:35.732Z,1.10
2022-12-18T01:05:45.350Z,1.00
2022-12-18T01:09:54.988Z,1.10
2022-12-18T01:14:07.930Z,1.20
2022-12-18T01:18:17.272Z,1.30
2022-12-18T01:22:26.506Z,1.20
2022-12-18T01:26:35.988Z,1.30
2022-12-18T01:30:50.330Z,1.40
2022-12-18T01:35:01.932Z,1.40
2022-12-18T01:39:16.912Z,1.40
2022-12-18T01:43:42.207Z,1.50
2022-12-18T01:47:58.432Z,1.60
2022-12-18T01:52:13.309Z,1.60
2022-12-18T01:56:26.449Z,1.70
2022-12-18T02:00:37.787Z,1.60
2022-12-18T02:04:53.831Z,1.60
2022-12-18T02:09:12.607Z,1.70
2022-12-18T02:13:29.929Z,1.80
2022-12-18T02:17:54.217Z,1.80
2022-12-18T02:22:24.526Z,1.80
2022-12-18T02:31:10.915Z,1.70
2022-12-18T02:35:27.434Z,1.80
2022-12-18T02:39:40.828Z,2.00
2022-12-18T02:44:00.650Z,2.10
2022-12-18T02:48:12.768Z,2.20
2022-12-18T02:52:32.466Z,2.30
2022-12-18T02:56:47.367Z,2.20
2022-12-18T03:01:05.493Z,2.20
2022-12-18T03:05:21.802Z,2.20
2022-12-18T03:09:35.211Z,2.30
2022-12-18T03:13:50.390Z,2.30
2022-12-18T03:18:05.707Z,2.30
2022-12-18T03:31:45.990Z,2.40
2022-12-18T03:35:57.191Z,2.70
2022-12-18T03:40:08.789Z,2.70
2022-12-18T03:44:27.650Z,2.80
2022-12-18T03:48:47.988Z,2.70
2022-12-18T03:53:11.747Z,2.80
2022-12-18T03:57:43.939Z,2.90
2022-12-18T04:10:57.492Z,2.90
2022-12-18T04:15:12.389Z,2.90
2022-12-18T04:19:36.029Z,2.90
2022-12-18T04:23:45.547Z,3.00
2022-12-18T04:28:04.830Z,3.00
2022-12-18T04:32:25.050Z,3.10
2022-12-18T04:36:34.828Z,3.20
2022-12-18T04:40:44.710Z,3.20
2022-12-18T04:44:57.912Z,3.20
2022-12-18T04:49:07.410Z,3.30
2022-12-18T04:53:18.547Z,3.40
2022-12-18T04:57:28.209Z,3.40
2022-12-18T05:01:47.245Z,3.50
2022-12-18T05:05:57.030Z,3.50
2022-12-18T05:10:10.232Z,3.60
2022-12-18T05:14:19.791Z,3.70
2022-12-18T05:18:31.155Z,3.90
2022-12-18T05:22:41.287Z,4.10
2022-12-18T05:26:50.790Z,4.30
2022-12-18T05:31:01.979Z,4.40
2022-12-18T05:35:13.731Z,4.40
2022-12-18T05:39:23.547Z,4.50
2022-12-18T05:43:33.072Z,4.60
2022-12-18T05:47:42.547Z,4.70
2022-12-18T05:51:53.250Z,4.70
2022-12-18T05:56:04.448Z,4.80
2022-12-18T06:00:15.053Z,4.90
2022-12-18T06:04:24.370Z,5.00
2022-12-18T06:08:39.329Z,5.00
2022-12-18T06:12:53.854Z,5.00
2022-12-18T06:17:03.152Z,5.10
2022-12-18T06:21:12.734Z,5.10
2022-12-18T06:25:23.546Z,5.10
2022-12-18T06:29:32.946Z,5.20
2022-12-18T06:33:42.691Z,5.30
2022-12-18T06:37:53.809Z,5.30
2022-12-18T06:42:04.709Z,5.50
2022-12-18T06:46:14.592Z,5.70
2022-12-18T06:50:24.047Z,6.20
2022-12-18T06:54:33.510Z,6.60
2022-12-18T06:58:44.528Z,6.90
2022-12-18T07:02:54.252Z,7.10
2022-12-18T07:07:03.651Z,7.20
2022-12-18T07:11:13.216Z,7.40
2022-12-18T07:15:24.010Z,9.30
2022-12-18T07:19:33.253Z,10.10
2022-12-18T07:23:42.961Z,10.40
2022-12-18T07:27:53.325Z,10.60
2022-12-18T07:32:05.164Z,10.50
2022-12-18T07:36:14.551Z,10.50
2022-12-18T07:40:23.807Z,10.50
2022-12-18T07:44:33.486Z,10.60
2022-12-18T07:48:50.435Z,10.70
2022-12-18T07:53:04.716Z,10.90
2022-12-18T07:57:34.078Z,11.00
2022-12-18T08:01:49.395Z,11.20
2022-12-18T08:06:03.949Z,11.30
2022-12-18T08:10:13.268Z,11.40
2022-12-18T08:14:22.448Z,11.40
2022-12-18T08:18:32.332Z,11.50
2022-12-18T08:22:49.049Z,11.50
2022-12-18T08:31:35.108Z,11.60
2022-12-18T08:35:47.510Z,11.60
2022-12-18T08:44:42.854Z,11.60
2022-12-18T08:48:54.634Z,11.50
2022-12-18T08:53:04.400Z,11.50
2022-12-18T08:57:32.832Z,11.50
2022-12-18T09:01:43.818Z,11.40
2022-12-18T09:05:55.932Z,11.50
2022-12-18T09:10:06.691Z,11.60
2022-12-18T09:14:21.193Z,11.60
2022-12-18T09:18:31.738Z,11.60
2022-12-18T09:22:42.269Z,11.70
2022-12-18T09:26:57.994Z,11.80
2022-12-18T09:31:18.503Z,11.90
2022-12-18T09:35:40.671Z,12.00
2022-12-18T09:39:52.148Z,12.00
2022-12-18T09:44:07.987Z,12.10
2022-12-18T09:48:28.269Z,12.10
2022-12-18T09:57:40.269Z,12.10
2022-12-18T10:01:49.748Z,12.20
2022-12-18T10:06:06.886Z,12.20
2022-12-18T10:10:29.746Z,12.20
2022-12-18T10:14:48.926Z,12.20
2022-12-18T10:19:19.688Z,12.20
2022-12-18T10:23:36.746Z,12.10
2022-12-18T10:27:46.908Z,12.10
2022-12-18T10:31:56.091Z,12.10
2022-12-18T10:36:07.510Z,12.00
2022-12-18T10:40:30.931Z,12.00
2022-12-18T10:44:40.305Z,11.90
2022-12-18T10:48:56.410Z,11.90
2022-12-18T10:53:08.147Z,11.90
2022-12-18T10:57:36.226Z,11.90
2022-12-18T11:01:54.454Z,11.90
2022-12-18T11:06:18.626Z,11.80
2022-12-18T11:10:34.128Z,11.70
2022-12-18T11:14:50.969Z,11.70
2022-12-18T11:19:20.329Z,11.80
2022-12-18T11:23:31.471Z,11.80
2022-12-18T11:27:52.879Z,11.80
2022-12-18T11:32:39.109Z,11.80
2022-12-18T11:41:24.847Z,11.80
2022-12-18T11:45:43.011Z,11.90
2022-12-18T11:49:59.348Z,11.90
2022-12-18T11:54:15.393Z,12.00
2022-12-18T11:58:51.651Z,12.00
2022-12-18T12:03:19.874Z,12.00
2022-12-18T12:07:42.528Z,12.00
2022-12-18T12:12:11.771Z,12.10
2022-12-18T12:16:37.438Z,12.10
2022-12-18T12:21:08.546Z,12.20
2022-12-18T12:25:43.767Z,12.20
2022-12-18T12:30:06.287Z,12.20
2022-12-18T12:34:28.186Z,12.30
2022-12-18T12:38:51.904Z,12.40
2022-12-18T12:43:17.827Z,12.50
2022-12-18T12:47:32.839Z,12.50
2022-12-18T12:51:47.093Z,12.40
2022-12-18T12:56:21.027Z,12.40
2022-12-18T13:00:45.033Z,12.40
2022-12-18T13:05:08.774Z,12.40
2022-12-18T13:09:21.126Z,12.40
2022-12-18T13:13:52.009Z,12.50
2022-12-18T13:18:21.384Z,12.40
2022-12-18T13:22:34.728Z,12.30
2022-12-18T13:26:44.413Z,12.30
2022-12-18T13:31:00.453Z,12.30
2022-12-18T13:35:42.291Z,12.20
2022-12-18T13:39:52.377Z,12.20
2022-12-18T13:44:14.509Z,12.20
2022-12-18T13:48:26.332Z,12.20
2022-12-18T13:52:40.172Z,12.20
2022-12-18T13:56:51.455Z,12.20
2022-12-18T14:01:03.403Z,12.20
2022-12-18T14:05:25.187Z,12.20
2022-12-18T14:09:40.600Z,12.20
2022-12-18T14:13:50.152Z,12.10
2022-12-18T14:18:02.789Z,12.10
2022-12-18T14:22:20.694Z,12.10
2022-12-18T14:26:52.550Z,12.10
2022-12-18T14:31:04.419Z,12.00
2022-12-18T14:35:17.607Z,12.00
2022-12-18T14:39:26.991Z,11.90
2022-12-18T14:43:39.928Z,11.90
2022-12-18T14:47:49.391Z,11.90
2022-12-18T14:52:00.127Z,11.90
2022-12-18T14:56:18.818Z,11.90
2022-12-18T15:00:29.591Z,11.80
2022-12-18T15:04:41.715Z,11.80
2022-12-18T15:08:53.906Z,11.80
2022-12-18T15:13:11.708Z,11.80
2022-12-18T15:17:25.777Z,11.80
2022-12-18T15:21:35.890Z,11.70
2022-12-18T15:25:45.370Z,11.80
2022-12-18T15:30:19.430Z,11.80
2022-12-18T15:34:30.647Z,11.80
2022-12-18T15:38:39.847Z,11.90
2022-12-18T15:43:08.127Z,11.90
2022-12-18T15:47:17.326Z,11.90
2022-12-18T15:51:31.029Z,11.90
2022-12-18T15:56:01.024Z,12.00
2022-12-18T16:00:15.671Z,12.00
2022-12-18T16:04:26.571Z,12.10
2022-12-18T16:08:37.453Z,12.10
2022-12-18T16:12:48.529Z,12.20
2022-12-18T16:16:59.353Z,12.30
2022-12-18T16:21:09.390Z,12.30
2022-12-18T16:25:23.151Z,12.30
2022-12-18T16:29:32.591Z,12.40
2022-12-18T16:33:42.226Z,12.40
2022-12-18T16:37:51.929Z,12.50
2022-12-18T16:42:05.995Z,12.60
2022-12-18T16:46:16.156Z,12.70
2022-12-18T16:50:25.762Z,12.70
2022-12-18T16:54:35.448Z,12.70
2022-12-18T16:58:46.228Z,12.60
2022-12-18T17:02:55.726Z,12.50
2022-12-18T17:07:05.287Z,12.40
2022-12-18T17:11:15.148Z,12.30
2022-12-18T17:15:26.270Z,12.40
2022-12-18T17:19:35.768Z,12.40
2022-12-18T17:23:45.886Z,12.50
2022-12-18T17:27:55.151Z,12.50
2022-12-18T17:32:06.269Z,12.40
2022-12-18T17:36:16.249Z,12.40
2022-12-18T17:40:25.768Z,12.40
2022-12-18T17:44:35.627Z,12.40
2022-12-18T17:48:46.366Z,12.20
2022-12-18T17:52:57.908Z,12.10
2022-12-18T17:57:07.516Z,12.20
2022-12-18T18:01:18.468Z,12.20
2022-12-18T18:05:29.308Z,12.40
2022-12-18T18:09:38.547Z,12.40
2022-12-18T18:14:02.668Z,12.50
2022-12-18T18:18:11.838Z,12.40
2022-12-18T18:22:24.992Z,12.30
2022-12-18T18:26:35.849Z,12.20
2022-12-18T18:30:45.129Z,12.10
2022-12-18T18:35:00.467Z,12.20
2022-12-18T18:39:11.286Z,12.30
2022-12-18T18:43:20.756Z,12.40
2022-12-18T18:47:34.053Z,12.50
2022-12-18T18:51:44.567Z,12.40
2022-12-18T18:56:24.893Z,12.50
2022-12-18T19:00:24.951Z,12.50
2022-12-18T19:04:34.749Z,12.50
2022-12-18T19:08:44.303Z,12.50
2022-12-18T19:13:12.826Z,12.40
2022-12-18T19:17:26.414Z,12.40
2022-12-18T19:21:38.969Z,12.30
2022-12-18T19:25:50.687Z,12.30
2022-12-18T19:30:01.471Z,12.40
2022-12-18T19:34:12.251Z,12.50
2022-12-18T19:38:21.810Z,12.50
2022-12-18T19:42:35.259Z,12.60
2022-12-18T19:46:46.810Z,12.60
2022-12-18T19:50:56.110Z,12.80
2022-12-18T19:55:05.489Z,12.80
2022-12-18T19:59:15.269Z,12.80
2022-12-18T20:03:32.073Z,12.80
2022-12-18T20:07:42.182Z,12.80
2022-12-18T20:11:53.368Z,12.80
2022-12-18T20:16:02.827Z,12.80
2022-12-18T20:20:13.768Z,12.80
2022-12-18T20:24:23.491Z,12.80
2022-12-18T20:28:32.669Z,12.80
2022-12-18T20:32:41.793Z,12.80
2022-12-18T20:36:52.706Z,12.80
2022-12-18T20:41:03.011Z,13.00
2022-12-18T20:45:12.493Z,13.10
2022-12-18T20:49:21.785Z,13.10
2022-12-18T20:53:32.847Z,13.20
2022-12-18T20:57:42.027Z,13.20
2022-12-18T21:01:52.553Z,13.20
2022-12-18T21:06:04.229Z,13.20
2022-12-18T21:10:14.949Z,13.20
2022-12-18T21:14:25.830Z,13.20
2022-12-18T21:18:35.187Z,13.20
2022-12-18T21:22:44.750Z,13.20
2022-12-18T21:26:55.631Z,13.20
2022-12-18T21:31:05.022Z,13.10
2022-12-18T21:35:16.588Z,13.10
2022-12-18T21:39:27.302Z,12.90
2022-12-18T21:43:57.637Z,12.90
2022-12-18T21:48:07.450Z,12.90
2022-12-18T21:52:16.487Z,12.90
2022-12-18T21:56:25.583Z,13.00
2022-12-18T22:00:36.307Z,13.00
2022-12-18T22:04:46.446Z,13.00
2022-12-18T22:08:55.947Z,12.90
2022-12-18T22:13:05.127Z,12.90
2022-12-18T22:17:16.127Z,12.90
2022-12-18T22:21:29.521Z,12.90
2022-12-18T22:25:39.822Z,12.90
2022-12-18T22:30:07.164Z,12.90
2022-12-18T22:34:22.659Z,12.90
2022-12-18T22:38:32.287Z,13.00
2022-12-18T22:42:41.467Z,13.00
2022-12-18T22:47:05.418Z,13.10
2022-12-18T22:51:23.168Z,13.10
2022-12-18T22:55:33.445Z,13.10
2022-12-18T22:59:42.587Z,13.10
2022-12-18T23:03:52.264Z,13.10
2022-12-18T23:08:03.086Z,13.10
2022-12-18T23:12:17.109Z,13.10
2022-12-18T23:16:26.796Z,13.00
2022-12-18T23:20:36.849Z,12.90
2022-12-18T23:24:48.546Z,13.00
2022-12-18T23:28:58.028Z,13.10
2022-12-18T23:33:07.450Z,13.20
2022-12-18T23:37:35.354Z,13.20
2022-12-18T23:41:47.345Z,13.20
2022-12-18T23:45:56.525Z,13.10
2022-12-18T23:50:07.308Z,13.00
2022-12-18T23:54:16.626Z,13.00
2022-12-18T23:58:27.568Z,13.00
